Ardmore, South Dakota
Current Conditions -  °F | °C
As of 5:53 AM on Saturday 25 Oct 2014 (Local Time) from KCUT Reporting Station
Clear Clear  
Wind Chill: 29°   Ceiling: Unl
Heat Index: 33°   Visibility: 10mi
Dew Point: 28°   Wind: 5mph
Humidity: 82%   Direction: 340°NNW
Pressure: 30.2"   Gusts: NA
Location:  43.1994°N, 103.759°W
Report Text: KCUT 251153Z AUTO 34004KT 10SM CLR 01/M02 A3020 RMK AO2 SLP213 T00061022 10044 20006 55002
Loading
Personal Weather Stations






























Interactive Weather Map New forecast layout! Learn more

10-Day Weather Forecast

Advertisements
Track Severe Weather on mobile